createdAt,value
2019-02-26T00:00:02.765Z,14.67
2019-02-26T00:02:32.617Z,10.20
2019-02-26T00:05:06.387Z,11.13
2019-02-26T00:07:35.540Z,7.37
2019-02-26T00:10:08.991Z,10.53
2019-02-26T00:12:38.128Z,13.47
2019-02-26T00:15:08.411Z,16.23
2019-02-26T00:17:43.081Z,11.83
2019-02-26T00:20:17.610Z,8.67
2019-02-26T00:22:50.221Z,12.30
2019-02-26T00:25:20.576Z,8.80
2019-02-26T00:27:52.444Z,10.53
2019-02-26T00:30:24.610Z,10.53
2019-02-26T00:32:56.128Z,12.43
2019-02-26T00:35:25.255Z,12.10
2019-02-26T00:37:55.873Z,11.93
2019-02-26T00:40:26.199Z,8.97
2019-02-26T00:42:57.538Z,10.67
2019-02-26T00:45:29.491Z,12.20
2019-02-26T00:47:58.193Z,11.90
2019-02-26T00:50:28.069Z,12.67
2019-02-26T00:52:59.421Z,9.80
2019-02-26T00:55:34.900Z,8.10
2019-02-26T00:58:05.906Z,9.90
2019-02-26T01:00:35.487Z,8.20
2019-02-26T01:03:06.028Z,16.73
2019-02-26T01:05:36.367Z,9.57
2019-02-26T01:08:12.747Z,11.03
2019-02-26T01:10:41.588Z,9.70
2019-02-26T01:13:17.284Z,9.60
2019-02-26T01:15:46.672Z,8.83
2019-02-26T01:18:15.786Z,9.07
2019-02-26T01:20:48.351Z,10.07
2019-02-26T01:23:21.459Z,12.90
2019-02-26T01:25:54.685Z,10.03
2019-02-26T01:28:24.800Z,9.20
2019-02-26T01:31:02.620Z,10.33
2019-02-26T01:33:32.122Z,9.00
2019-02-26T01:36:06.394Z,14.60
2019-02-26T01:38:39.406Z,7.53
2019-02-26T01:41:11.256Z,11.50
2019-02-26T01:43:41.574Z,7.67
2019-02-26T01:46:11.706Z,8.83
2019-02-26T01:48:41.528Z,6.40
2019-02-26T01:51:10.673Z,8.90
2019-02-26T01:53:39.820Z,8.93
2019-02-26T01:56:19.947Z,9.60
2019-02-26T01:58:56.841Z,9.10
2019-02-26T02:01:32.214Z,10.07
2019-02-26T02:04:03.950Z,10.90
2019-02-26T02:06:36.906Z,16.53
2019-02-26T02:09:15.835Z,8.37
2019-02-26T02:11:47.917Z,10.17
2019-02-26T02:14:20.076Z,11.57
2019-02-26T02:16:49.191Z,8.83
2019-02-26T02:19:22.235Z,9.37
2019-02-26T02:21:53.938Z,10.43
2019-02-26T02:24:24.567Z,10.07
2019-02-26T02:26:58.436Z,10.50
2019-02-26T02:29:28.879Z,12.27
2019-02-26T02:32:02.257Z,9.13
2019-02-26T02:34:32.661Z,12.60
2019-02-26T02:37:00.615Z,12.10
2019-02-26T02:39:29.737Z,8.43
2019-02-26T02:41:58.811Z,10.50
2019-02-26T02:44:29.328Z,8.33
2019-02-26T02:47:01.986Z,8.70
2019-02-26T02:49:38.897Z,11.97
2019-02-26T02:52:11.891Z,7.90
2019-02-26T02:54:44.130Z,9.20
2019-02-26T02:57:18.017Z,6.77
2019-02-26T02:59:47.138Z,9.80
2019-02-26T03:02:17.677Z,28.60
2019-02-26T03:04:52.315Z,8.00
2019-02-26T03:07:23.428Z,8.10
2019-02-26T03:10:06.142Z,8.07
2019-02-26T03:12:33.952Z,10.50
2019-02-26T03:15:07.987Z,6.60
2019-02-26T03:17:42.619Z,9.67
2019-02-26T03:20:13.630Z,9.80
2019-02-26T03:22:46.148Z,8.80
2019-02-26T03:25:24.347Z,9.77
2019-02-26T03:27:52.847Z,11.43
2019-02-26T03:30:31.956Z,7.90
2019-02-26T03:33:04.363Z,11.10
2019-02-26T03:35:36.408Z,12.40
2019-02-26T03:38:06.310Z,8.93
2019-02-26T03:40:36.153Z,12.07
2019-02-26T03:43:07.696Z,6.33
2019-02-26T03:45:39.550Z,9.37
2019-02-26T03:48:11.725Z,8.40
2019-02-26T03:50:44.062Z,9.90
2019-02-26T03:53:15.139Z,9.57
2019-02-26T03:55:44.599Z,7.83
2019-02-26T03:58:14.778Z,14.80
2019-02-26T04:00:46.768Z,10.10
2019-02-26T04:03:17.632Z,9.30
2019-02-26T04:05:47.154Z,9.20
2019-02-26T04:08:23.897Z,8.37
2019-02-26T04:10:53.624Z,9.10
2019-02-26T04:13:22.360Z,9.53
2019-02-26T04:15:55.978Z,10.37
2019-02-26T04:18:34.195Z,9.17
2019-02-26T04:21:05.924Z,9.60
2019-02-26T04:23:36.083Z,8.53
2019-02-26T04:27:08.320Z,11.83
2019-02-26T04:29:57.887Z,10.63
2019-02-26T04:33:17.369Z,10.80
2019-02-26T04:36:11.901Z,8.47
2019-02-26T04:39:13.631Z,9.33
2019-02-26T04:42:20.532Z,13.70
2019-02-26T04:45:45.531Z,6.23
2019-02-26T04:48:29.806Z,5.60
2019-02-26T04:51:10.303Z,8.80
2019-02-26T04:53:39.460Z,12.60
2019-02-26T04:56:12.872Z,8.67
2019-02-26T04:58:45.393Z,8.63
2019-02-26T05:01:18.882Z,8.97
2019-02-26T05:03:49.651Z,9.13
2019-02-26T05:06:20.577Z,7.73
2019-02-26T05:08:51.267Z,13.10
2019-02-26T05:11:31.394Z,8.13
2019-02-26T05:13:59.530Z,10.07
2019-02-26T05:16:31.889Z,7.57
2019-02-26T05:19:00.080Z,7.60
2019-02-26T05:21:32.614Z,8.93
2019-02-26T05:24:03.019Z,8.50
2019-02-26T05:26:33.363Z,8.40
2019-02-26T05:29:04.274Z,9.57
2019-02-26T05:31:35.837Z,10.10
2019-02-26T05:34:06.746Z,10.70
2019-02-26T05:36:40.295Z,8.33
2019-02-26T05:39:10.136Z,8.70
2019-02-26T05:41:40.447Z,6.93
2019-02-26T05:44:13.151Z,10.13
2019-02-26T05:46:42.262Z,8.77
2019-02-26T05:49:14.108Z,9.47
2019-02-26T05:51:49.208Z,10.97
2019-02-26T05:54:21.600Z,14.30
2019-02-26T05:56:51.840Z,13.00
2019-02-26T05:59:25.196Z,14.00
2019-02-26T06:01:58.373Z,12.33
2019-02-26T06:04:31.998Z,8.90
2019-02-26T06:07:02.656Z,10.23
2019-02-26T06:09:37.901Z,10.23
2019-02-26T06:12:07.979Z,10.03
2019-02-26T06:14:39.420Z,7.90
2019-02-26T06:17:13.175Z,10.37
2019-02-26T06:19:47.042Z,12.80
2019-02-26T06:22:21.319Z,9.47
2019-02-26T06:24:49.768Z,6.90
2019-02-26T06:27:21.993Z,8.17
2019-02-26T06:29:52.886Z,8.33
2019-02-26T06:32:21.471Z,7.70
2019-02-26T06:34:50.580Z,8.00
2019-02-26T06:37:23.378Z,10.17
2019-02-26T06:40:00.457Z,12.10
2019-02-26T06:42:31.564Z,6.20
2019-02-26T06:45:05.881Z,9.30
2019-02-26T06:47:36.925Z,9.07
2019-02-26T06:50:15.848Z,8.73
2019-02-26T06:52:45.383Z,7.80
2019-02-26T06:55:16.985Z,10.60
2019-02-26T06:57:47.075Z,9.70
2019-02-26T07:00:25.160Z,6.83
2019-02-26T07:02:55.658Z,12.00
2019-02-26T07:05:24.765Z,9.93
2019-02-26T07:07:55.113Z,8.13
2019-02-26T07:10:28.180Z,14.03
2019-02-26T07:12:58.048Z,9.37
2019-02-26T07:15:29.476Z,8.20
2019-02-26T07:18:04.074Z,8.70
2019-02-26T07:20:46.479Z,10.87
2019-02-26T07:23:03.417Z,10.60
2019-02-26T07:25:38.808Z,9.47
2019-02-26T07:28:07.815Z,7.97
2019-02-26T07:30:37.564Z,8.37
2019-02-26T07:33:16.193Z,12.40
2019-02-26T07:35:45.378Z,10.60
2019-02-26T07:38:20.179Z,9.63
2019-02-26T07:40:54.345Z,7.37
2019-02-26T07:43:23.438Z,9.07
2019-02-26T07:45:57.655Z,10.27
2019-02-26T07:48:31.249Z,6.67
2019-02-26T07:51:01.876Z,8.80
2019-02-26T07:53:31.922Z,10.13
2019-02-26T07:56:03.642Z,7.80
2019-02-26T07:58:38.942Z,8.93
2019-02-26T08:01:13.663Z,7.50
2019-02-26T08:03:44.041Z,9.97
2019-02-26T08:06:21.883Z,8.57
2019-02-26T08:08:52.761Z,9.67
2019-02-26T08:11:22.357Z,6.73
2019-02-26T08:13:52.390Z,7.50
2019-02-26T08:16:27.716Z,8.93
2019-02-26T08:18:59.012Z,7.67
2019-02-26T08:21:32.195Z,9.60
2019-02-26T08:24:01.665Z,7.50
2019-02-26T08:26:33.538Z,9.43
2019-02-26T08:29:05.665Z,12.77
2019-02-26T08:31:34.671Z,12.23
2019-02-26T08:34:06.684Z,10.50
2019-02-26T08:36:37.950Z,8.00
2019-02-26T08:39:08.598Z,9.57
2019-02-26T08:41:38.008Z,12.20
2019-02-26T08:44:10.663Z,11.43
2019-02-26T08:46:42.082Z,10.83
2019-02-26T08:49:11.614Z,9.80
2019-02-26T08:51:41.959Z,9.80
2019-02-26T08:54:20.354Z,11.77
2019-02-26T08:56:42.016Z,15.17
2019-02-26T08:59:17.660Z,9.13
2019-02-26T09:01:52.158Z,9.50
2019-02-26T09:04:23.795Z,13.50
2019-02-26T09:06:54.691Z,9.37
2019-02-26T09:09:27.783Z,11.00
2019-02-26T09:12:03.039Z,10.30
2019-02-26T09:14:37.589Z,12.67
2019-02-26T09:17:07.764Z,14.53
2019-02-26T09:19:38.217Z,12.77
2019-02-26T09:22:26.661Z,10.87
2019-02-26T09:25:09.337Z,11.80
2019-02-26T09:27:45.685Z,13.97
2019-02-26T09:30:16.420Z,10.43
2019-02-26T09:32:52.322Z,12.57
2019-02-26T09:35:25.302Z,12.50
2019-02-26T09:37:57.754Z,13.00
2019-02-26T09:40:37.644Z,10.27
2019-02-26T09:43:08.298Z,12.07
2019-02-26T09:45:37.408Z,10.27
2019-02-26T09:48:06.589Z,10.30
2019-02-26T09:50:38.650Z,12.27
2019-02-26T09:53:13.448Z,13.63
2019-02-26T09:55:44.455Z,9.20
2019-02-26T09:58:15.856Z,9.53
2019-02-26T10:00:46.097Z,14.17
2019-02-26T10:03:22.248Z,15.53
2019-02-26T10:05:53.205Z,13.17
2019-02-26T10:08:24.812Z,12.47
2019-02-26T10:10:57.607Z,8.30
2019-02-26T10:13:28.688Z,11.87
2019-02-26T10:15:59.283Z,12.33
2019-02-26T10:18:30.924Z,10.63
2019-02-26T10:21:03.260Z,10.63
2019-02-26T10:23:33.149Z,11.17
2019-02-26T10:26:05.762Z,11.87
2019-02-26T10:28:39.381Z,14.33
2019-02-26T10:31:10.556Z,12.57
2019-02-26T10:33:41.131Z,9.90
2019-02-26T10:36:13.480Z,7.97
2019-02-26T10:38:45.010Z,13.13
2019-02-26T10:41:16.629Z,11.60
2019-02-26T10:43:46.051Z,10.83
2019-02-26T10:46:16.320Z,11.73
2019-02-26T10:48:48.166Z,19.93
2019-02-26T10:51:18.212Z,13.87
2019-02-26T10:53:50.213Z,9.93
2019-02-26T10:56:20.546Z,9.17
2019-02-26T10:58:54.737Z,8.63
2019-02-26T11:01:27.524Z,11.40
2019-02-26T11:03:57.636Z,9.23
2019-02-26T11:06:27.817Z,8.43
2019-02-26T11:09:01.764Z,6.70
2019-02-26T11:11:35.225Z,10.57
2019-02-26T11:14:05.271Z,10.93
2019-02-26T11:16:45.077Z,6.10
2019-02-26T11:19:14.399Z,7.33
2019-02-26T11:21:47.524Z,10.27
2019-02-26T11:24:23.056Z,10.90
2019-02-26T11:26:51.798Z,9.40
2019-02-26T11:29:21.102Z,9.53
2019-02-26T11:31:54.645Z,7.43
2019-02-26T11:34:25.493Z,13.70
2019-02-26T11:36:56.109Z,8.90
2019-02-26T11:39:26.079Z,8.50
2019-02-26T11:41:56.835Z,8.67
2019-02-26T11:44:32.305Z,7.33
2019-02-26T11:47:02.943Z,8.57
2019-02-26T11:49:34.321Z,9.17
2019-02-26T11:52:04.668Z,7.70
2019-02-26T11:54:37.152Z,9.93
2019-02-26T11:57:10.286Z,9.00
2019-02-26T11:59:42.939Z,12.10
2019-02-26T12:02:13.811Z,12.97
2019-02-26T12:04:43.005Z,9.30
2019-02-26T12:07:14.329Z,9.93
2019-02-26T12:09:45.802Z,13.50
2019-02-26T12:12:18.024Z,10.40
2019-02-26T12:14:48.525Z,10.40
2019-02-26T12:17:21.346Z,8.20
2019-02-26T12:19:53.354Z,6.70
2019-02-26T12:22:30.303Z,7.60
2019-02-26T12:25:01.831Z,8.00
2019-02-26T12:27:32.122Z,8.50
2019-02-26T12:30:02.089Z,6.20
2019-02-26T12:32:33.039Z,6.90
2019-02-26T12:35:08.586Z,7.57
2019-02-26T12:37:40.587Z,7.07
2019-02-26T12:40:19.422Z,6.10
2019-02-26T12:42:48.233Z,7.60
2019-02-26T12:45:20.651Z,6.37
2019-02-26T12:47:54.500Z,10.50
2019-02-26T12:50:34.263Z,6.00
2019-02-26T12:53:04.060Z,6.23
2019-02-26T12:55:35.853Z,7.53
2019-02-26T12:58:06.824Z,4.77
2019-02-26T13:00:41.938Z,7.20
2019-02-26T13:03:25.092Z,6.30
2019-02-26T13:05:54.546Z,7.30
2019-02-26T13:08:28.922Z,7.07
2019-02-26T13:11:00.342Z,5.70
2019-02-26T13:13:31.609Z,7.13
2019-02-26T13:16:05.446Z,4.37
2019-02-26T13:21:19.864Z,9.87
2019-02-26T13:24:03.610Z,6.03
2019-02-26T13:26:38.931Z,6.70
2019-02-26T13:29:09.867Z,5.37
2019-02-26T13:31:44.815Z,10.87
2019-02-26T13:34:14.250Z,6.97
2019-02-26T13:36:52.228Z,7.30
2019-02-26T13:39:29.826Z,6.37
2019-02-26T13:41:58.587Z,6.93
2019-02-26T13:44:28.443Z,7.27
2019-02-26T13:46:58.611Z,9.40
2019-02-26T13:49:29.050Z,6.00
2019-02-26T13:52:01.244Z,4.93
2019-02-26T13:54:34.871Z,6.90
2019-02-26T13:57:05.451Z,8.17
2019-02-26T13:59:35.639Z,7.73
2019-02-26T14:02:09.597Z,5.77
2019-02-26T14:04:38.738Z,6.50
2019-02-26T14:07:07.852Z,12.00
2019-02-26T14:09:38.073Z,10.37
2019-02-26T14:12:08.416Z,5.23
2019-02-26T14:14:40.037Z,7.57
2019-02-26T14:17:09.143Z,3.50
2019-02-26T14:19:38.300Z,5.20
2019-02-26T14:22:08.015Z,5.70
2019-02-26T14:24:38.408Z,4.93
2019-02-26T14:27:08.577Z,6.17
2019-02-26T14:29:41.979Z,5.90
2019-02-26T14:32:11.510Z,4.53
2019-02-26T14:34:44.469Z,5.73
2019-02-26T14:37:16.917Z,6.27
2019-02-26T14:39:46.074Z,5.03
2019-02-26T14:42:16.946Z,6.43
2019-02-26T14:44:52.051Z,7.80
2019-02-26T14:47:21.699Z,4.00
2019-02-26T14:49:50.811Z,7.00
2019-02-26T14:52:20.174Z,4.17
2019-02-26T14:54:50.664Z,7.07
2019-02-26T14:57:20.278Z,7.90
2019-02-26T14:59:51.022Z,5.77
2019-02-26T15:02:20.144Z,8.63
2019-02-26T15:04:52.447Z,6.53
2019-02-26T15:07:22.730Z,4.47
2019-02-26T15:09:56.621Z,5.90
2019-02-26T15:12:25.742Z,4.80
2019-02-26T15:14:59.610Z,9.93
2019-02-26T15:17:32.246Z,8.40
2019-02-26T15:20:04.742Z,6.63
2019-02-26T15:22:35.534Z,9.57
2019-02-26T15:25:04.991Z,8.70
2019-02-26T15:27:38.943Z,11.23
2019-02-26T15:30:13.485Z,10.47
2019-02-26T15:32:42.898Z,12.20
2019-02-26T15:35:15.127Z,9.93
2019-02-26T15:37:48.630Z,7.03
2019-02-26T15:40:17.957Z,10.40
2019-02-26T15:42:52.440Z,8.53
2019-02-26T15:45:24.876Z,6.33
2019-02-26T15:47:55.271Z,9.33
2019-02-26T15:50:26.207Z,7.50
2019-02-26T15:52:55.443Z,5.93
2019-02-26T15:55:25.976Z,11.30
2019-02-26T15:58:03.059Z,8.50
2019-02-26T16:00:29.434Z,8.20
2019-02-26T16:02:59.420Z,9.93
2019-02-26T16:05:31.146Z,9.50
2019-02-26T16:08:06.262Z,7.57
2019-02-26T16:10:37.815Z,10.40
2019-02-26T16:13:10.448Z,8.83
2019-02-26T16:15:40.629Z,10.77
2019-02-26T16:18:09.738Z,9.47
2019-02-26T16:20:39.454Z,10.70
2019-02-26T16:23:12.633Z,10.67
2019-02-26T16:25:41.861Z,14.27
2019-02-26T16:28:11.001Z,14.93
2019-02-26T16:30:41.199Z,14.23
2019-02-26T16:33:20.303Z,12.07
2019-02-26T16:35:57.633Z,13.87
2019-02-26T16:38:29.342Z,10.53
2019-02-26T16:40:58.546Z,14.33
2019-02-26T16:43:28.615Z,14.63
2019-02-26T16:45:57.720Z,16.27
2019-02-26T16:48:26.954Z,14.27
2019-02-26T16:50:59.114Z,16.10
2019-02-26T16:53:34.320Z,11.67
2019-02-26T16:56:05.274Z,12.83
2019-02-26T16:58:35.625Z,12.43
2019-02-26T17:01:08.106Z,16.03
2019-02-26T17:03:39.001Z,13.83
2019-02-26T17:06:08.122Z,19.10
2019-02-26T17:08:37.242Z,21.33
2019-02-26T17:11:06.727Z,21.53
2019-02-26T17:13:36.573Z,14.77
2019-02-26T17:16:06.796Z,14.77
2019-02-26T17:18:40.566Z,14.83
2019-02-26T17:21:16.898Z,15.67
2019-02-26T17:23:47.115Z,15.17
2019-02-26T17:26:16.902Z,11.93
2019-02-26T17:28:48.853Z,16.10
2019-02-26T17:31:18.011Z,14.27
2019-02-26T17:33:51.277Z,12.10
2019-02-26T17:36:22.797Z,14.70
2019-02-26T17:39:07.176Z,11.70
2019-02-26T17:41:28.753Z,12.03
2019-02-26T17:44:07.092Z,13.73
2019-02-26T17:46:36.568Z,12.30
2019-02-26T17:49:08.469Z,21.53
2019-02-26T17:51:38.586Z,14.40
2019-02-26T17:54:12.165Z,10.10
2019-02-26T17:56:42.195Z,11.13
2019-02-26T17:59:11.398Z,12.87
2019-02-26T18:01:40.518Z,12.00
2019-02-26T18:04:09.592Z,9.80
2019-02-26T18:06:42.809Z,13.50
2019-02-26T18:09:09.990Z,10.10
2019-02-26T18:11:40.341Z,12.77
2019-02-26T18:14:10.834Z,9.13
2019-02-26T18:16:41.627Z,9.17
2019-02-26T18:19:12.404Z,11.40
2019-02-26T18:22:04.138Z,8.97
2019-02-26T18:24:33.440Z,9.60
2019-02-26T18:27:02.544Z,7.53
2019-02-26T18:29:34.175Z,9.77
2019-02-26T18:32:11.703Z,8.93
2019-02-26T18:34:43.236Z,8.87
2019-02-26T18:37:12.354Z,8.57
2019-02-26T18:39:41.511Z,12.00
2019-02-26T18:42:15.594Z,8.80
2019-02-26T18:44:44.746Z,11.13
2019-02-26T18:47:13.837Z,13.60
2019-02-26T18:49:45.645Z,19.60
2019-02-26T18:52:14.748Z,12.50
2019-02-26T18:54:45.117Z,10.23
2019-02-26T18:57:15.083Z,10.13
2019-02-26T18:59:44.791Z,7.97
2019-02-26T19:02:14.246Z,9.17
2019-02-26T19:04:48.792Z,9.53
2019-02-26T19:07:22.684Z,7.50
2019-02-26T19:09:52.096Z,10.30
2019-02-26T19:12:32.179Z,9.10
2019-02-26T19:15:01.660Z,11.20
2019-02-26T19:17:31.628Z,7.10
2019-02-26T19:20:02.686Z,7.40
2019-02-26T19:22:33.222Z,7.00
2019-02-26T19:25:02.510Z,17.77
2019-02-26T19:27:32.967Z,12.20
2019-02-26T19:30:04.572Z,11.27
2019-02-26T19:32:35.557Z,11.93
2019-02-26T19:35:12.206Z,10.37
2019-02-26T19:37:39.198Z,12.53
2019-02-26T19:40:13.825Z,13.30
2019-02-26T19:42:42.949Z,11.70
2019-02-26T19:45:16.008Z,10.80
2019-02-26T19:47:45.123Z,10.47
2019-02-26T19:50:16.008Z,9.27
2019-02-26T19:52:56.600Z,8.77
2019-02-26T19:55:25.951Z,11.53
2019-02-26T19:57:58.276Z,8.63
2019-02-26T20:00:27.375Z,11.03
2019-02-26T20:02:59.898Z,8.20
2019-02-26T20:05:31.477Z,10.93
2019-02-26T20:08:04.905Z,10.63
2019-02-26T20:10:35.427Z,10.13
2019-02-26T20:13:12.455Z,9.73
2019-02-26T20:15:41.747Z,10.43
2019-02-26T20:18:20.198Z,7.77
2019-02-26T20:20:52.128Z,20.77
2019-02-26T20:23:23.302Z,29.30
2019-02-26T20:25:52.465Z,21.00
2019-02-26T20:28:23.989Z,27.33
2019-02-26T20:30:53.109Z,18.83
2019-02-26T20:33:22.349Z,31.30
2019-02-26T20:35:51.431Z,29.73
2019-02-26T20:38:22.152Z,29.30
2019-02-26T20:40:51.553Z,32.57
2019-02-26T20:43:21.843Z,33.90
2019-02-26T20:45:52.682Z,35.20
2019-02-26T20:48:23.550Z,27.23
2019-02-26T20:51:01.452Z,25.07
2019-02-26T20:53:38.582Z,58.67
2019-02-26T20:56:05.513Z,24.57
2019-02-26T20:58:34.707Z,28.07
2019-02-26T21:01:05.708Z,29.17
2019-02-26T21:03:34.908Z,23.20
2019-02-26T21:06:05.301Z,24.93
2019-02-26T21:08:40.791Z,24.17
2019-02-26T21:11:10.028Z,25.43
2019-02-26T21:13:42.203Z,24.63
2019-02-26T21:16:11.597Z,20.30
2019-02-26T21:18:42.484Z,19.50
2019-02-26T21:21:16.559Z,21.20
2019-02-26T21:23:48.428Z,15.70
2019-02-26T21:26:19.674Z,17.00
2019-02-26T21:28:48.632Z,19.60
2019-02-26T21:31:22.421Z,18.73
2019-02-26T21:33:51.615Z,15.07
2019-02-26T21:36:20.728Z,38.80
2019-02-26T21:38:49.873Z,32.47
2019-02-26T21:41:23.150Z,16.27
2019-02-26T21:43:50.993Z,12.20
2019-02-26T21:46:22.550Z,26.93
2019-02-26T21:48:51.707Z,25.93
2019-02-26T21:51:21.060Z,17.20
2019-02-26T21:53:50.150Z,17.30
2019-02-26T21:56:19.284Z,15.40
2019-02-26T21:58:48.361Z,12.00
2019-02-26T22:01:20.003Z,12.73
2019-02-26T22:03:52.296Z,14.07
2019-02-26T22:06:21.392Z,13.60
2019-02-26T22:08:50.502Z,16.80
2019-02-26T22:11:21.382Z,13.57
2019-02-26T22:13:50.478Z,10.43
2019-02-26T22:16:19.614Z,11.37
2019-02-26T22:18:48.728Z,10.70
2019-02-26T22:21:19.658Z,11.90
2019-02-26T22:23:48.862Z,17.63
2019-02-26T22:26:18.051Z,10.90
2019-02-26T22:28:47.168Z,11.53
2019-02-26T22:31:16.291Z,7.43
2019-02-26T22:33:46.361Z,9.43
2019-02-26T22:36:18.280Z,10.17
2019-02-26T22:38:49.831Z,12.37
2019-02-26T22:41:25.149Z,12.47
2019-02-26T22:43:55.247Z,11.30
2019-02-26T22:46:25.619Z,8.43
2019-02-26T22:48:57.312Z,10.80
2019-02-26T22:51:29.459Z,10.73
2019-02-26T22:54:00.332Z,14.47
2019-02-26T22:56:33.922Z,20.87
2019-02-26T22:59:08.005Z,16.87
2019-02-26T23:01:48.739Z,12.57
2019-02-26T23:04:19.659Z,16.00
2019-02-26T23:06:48.780Z,18.13
2019-02-26T23:09:23.784Z,20.80
2019-02-26T23:11:54.763Z,19.50
2019-02-26T23:14:23.992Z,18.53
2019-02-26T23:16:53.108Z,25.97
2019-02-26T23:19:25.134Z,21.37
2019-02-26T23:21:54.238Z,15.80
2019-02-26T23:24:27.724Z,13.90
2019-02-26T23:26:54.678Z,16.23
2019-02-26T23:29:27.801Z,19.17
2019-02-26T23:31:56.832Z,14.80
2019-02-26T23:34:25.951Z,13.73
2019-02-26T23:37:00.658Z,11.13
2019-02-26T23:39:31.964Z,15.30
2019-02-26T23:42:06.126Z,11.33
2019-02-26T23:44:35.776Z,12.70
2019-02-26T23:47:06.051Z,12.03
2019-02-26T23:49:36.561Z,18.03
2019-02-26T23:52:10.899Z,11.30
2019-02-26T23:54:40.491Z,10.00
2019-02-26T23:57:09.752Z,11.80
2019-02-26T23:59:48.071Z,10.83
